Terminal Aerodrome Forecast
Issued by NWS

Home | Current Version | Previous Version | Text Only | Print | Product List | Glossary On
Versions: 1 2 3 4 5 6 7 8 9 10 11 12 13
000
FTUS43 KGRR 231135
TAFJXN
TAF
KJXN 231135Z 2312/2412 14005KT P6SM BKN040
     FM231500 14007KT P6SM -SHRA OVC050
     FM231800 14009KT 3SM SHRA BR OVC030
     FM232100 14008KT 2SM SHRA BR OVC008
     FM240100 21011G22KT 4SM SHRA BR OVC008 WS020/26030KT=

USA.gov is the U.S. government's official web portal to all federal, state and local government web resources and services.